createdAt,value
2018-10-17T00:00:54.617Z,23.73
2018-10-17T00:03:23.765Z,22.00
2018-10-17T00:05:52.961Z,24.30
2018-10-17T00:08:22.134Z,23.57
2018-10-17T00:10:51.308Z,26.30
2018-10-17T00:13:20.488Z,14.63
2018-10-17T00:15:49.670Z,17.50
2018-10-17T00:18:18.828Z,16.47
2018-10-17T00:20:48.025Z,25.33
2018-10-17T00:23:17.217Z,22.53
2018-10-17T00:25:46.363Z,16.43
2018-10-17T00:28:15.766Z,16.80
2018-10-17T00:30:44.921Z,15.63
2018-10-17T00:33:14.080Z,14.70
2018-10-17T00:36:14.389Z,19.53
2018-10-17T00:38:43.581Z,15.10
2018-10-17T00:41:12.822Z,26.73
2018-10-17T00:43:42.068Z,24.50
2018-10-17T00:46:11.246Z,18.17
2018-10-17T00:48:40.419Z,24.47
2018-10-17T00:51:09.639Z,15.70
2018-10-17T00:53:38.905Z,15.80
2018-10-17T00:56:08.602Z,20.13
2018-10-17T00:58:37.755Z,16.77
2018-10-17T01:01:06.964Z,16.33
2018-10-17T01:04:05.245Z,15.10
2018-10-17T01:06:34.837Z,19.70
2018-10-17T01:09:07.042Z,16.67
2018-10-17T01:11:36.676Z,15.30
2018-10-17T01:14:06.449Z,18.23
2018-10-17T01:16:35.619Z,25.13
2018-10-17T01:19:05.275Z,16.00
2018-10-17T01:21:35.267Z,15.90
2018-10-17T01:24:04.645Z,17.27
2018-10-17T01:26:33.941Z,15.80
2018-10-17T01:29:03.242Z,21.30
2018-10-17T01:31:33.010Z,18.20
2018-10-17T01:34:02.245Z,15.90
2018-10-17T01:36:31.399Z,16.83
2018-10-17T01:39:00.548Z,17.27
2018-10-17T01:41:29.757Z,17.17
2018-10-17T01:43:59.115Z,17.03
2018-10-17T01:46:28.294Z,17.37
2018-10-17T01:48:57.539Z,16.33
2018-10-17T01:51:27.241Z,16.40
2018-10-17T01:53:56.415Z,16.87
2018-10-17T01:56:25.596Z,16.90
2018-10-17T01:58:54.787Z,15.60
2018-10-17T02:01:24.093Z,19.03
2018-10-17T02:03:53.310Z,24.53
2018-10-17T02:06:22.497Z,22.70
2018-10-17T02:08:51.686Z,23.67
2018-10-17T02:11:20.885Z,16.57
2018-10-17T02:14:06.708Z,15.60
2018-10-17T02:16:35.893Z,16.60
2018-10-17T02:19:05.319Z,15.20
2018-10-17T02:21:34.556Z,16.13
2018-10-17T02:24:03.753Z,20.90
2018-10-17T02:26:32.938Z,17.60
2018-10-17T02:29:02.111Z,15.60
2018-10-17T02:31:31.293Z,16.37
2018-10-17T02:34:00.489Z,16.50
2018-10-17T02:36:29.704Z,17.03
2018-10-17T02:38:58.865Z,20.93
2018-10-17T02:44:27.898Z,16.20
2018-10-17T02:46:57.059Z,15.43
2018-10-17T02:49:26.308Z,16.50
2018-10-17T02:51:55.463Z,16.17
2018-10-17T02:54:24.617Z,20.93
2018-10-17T02:56:53.838Z,20.40
2018-10-17T02:59:23.010Z,20.70
2018-10-17T03:02:06.929Z,20.43
2018-10-17T03:04:36.274Z,15.80
2018-10-17T03:07:05.480Z,20.20
2018-10-17T03:09:34.654Z,15.70
2018-10-17T03:12:03.829Z,17.07
2018-10-17T03:14:33.003Z,15.83
2018-10-17T03:17:02.284Z,15.47
2018-10-17T03:19:31.430Z,16.40
2018-10-17T03:22:00.606Z,16.20
2018-10-17T03:24:29.813Z,14.23
2018-10-17T03:26:58.973Z,15.33
2018-10-17T03:29:28.305Z,17.43
2018-10-17T03:32:07.320Z,14.23
2018-10-17T03:34:36.519Z,15.40
2018-10-17T03:37:05.980Z,17.83
2018-10-17T03:39:35.114Z,19.70
2018-10-17T03:42:04.300Z,15.50
2018-10-17T03:44:33.501Z,19.50
2018-10-17T03:47:02.707Z,18.23
2018-10-17T03:49:31.944Z,16.80
2018-10-17T03:52:07.119Z,17.03
2018-10-17T03:55:05.353Z,15.50
2018-10-17T03:57:34.485Z,15.83
2018-10-17T04:00:03.670Z,18.77
2018-10-17T04:02:32.857Z,16.87
2018-10-17T04:05:13.159Z,19.50
2018-10-17T04:07:42.648Z,17.27
2018-10-17T04:10:11.805Z,14.53
2018-10-17T04:12:40.961Z,18.10
2018-10-17T04:15:10.337Z,15.37
2018-10-17T04:17:39.913Z,16.43
2018-10-17T04:20:09.065Z,14.00
2018-10-17T04:22:43.067Z,14.37
2018-10-17T04:25:12.256Z,13.53
2018-10-17T04:27:41.443Z,13.50
2018-10-17T04:30:10.626Z,13.33
2018-10-17T04:32:39.909Z,18.63
2018-10-17T04:35:09.240Z,18.33
2018-10-17T04:37:38.388Z,14.70
2018-10-17T04:40:07.606Z,17.37
2018-10-17T04:42:36.774Z,13.03
2018-10-17T04:45:07.698Z,18.47
2018-10-17T04:50:41.301Z,19.23
2018-10-17T04:53:10.561Z,15.70
2018-10-17T04:55:39.684Z,16.73
2018-10-17T04:58:09.200Z,17.33
2018-10-17T05:00:38.409Z,20.30
2018-10-17T05:03:07.590Z,18.17
2018-10-17T05:05:36.844Z,14.97
2018-10-17T05:08:06.424Z,18.83
2018-10-17T05:10:35.619Z,18.27
2018-10-17T05:13:04.923Z,16.53
2018-10-17T05:15:34.070Z,17.00
2018-10-17T05:18:03.237Z,19.90
2018-10-17T05:20:32.421Z,18.87
2018-10-17T05:23:01.631Z,20.33
2018-10-17T05:25:30.779Z,19.83
2018-10-17T05:27:59.993Z,14.27
2018-10-17T05:30:29.178Z,14.10
2018-10-17T05:42:23.402Z,13.23
2018-10-17T05:45:07.379Z,13.87
2018-10-17T05:48:05.360Z,14.07
2018-10-17T06:00:05.608Z,14.03
2018-10-17T06:15:05.708Z,14.40
2018-10-17T06:21:05.387Z,14.03
2018-10-17T06:30:05.770Z,13.43
2018-10-17T06:50:07.409Z,12.70
2018-10-17T06:56:05.606Z,15.60
2018-10-17T07:05:05.837Z,14.93
2018-10-17T07:14:05.158Z,11.13
2018-10-17T07:26:05.845Z,14.83
2018-10-17T07:32:05.383Z,12.90
2018-10-17T07:41:05.778Z,15.20
2018-10-17T07:50:05.287Z,13.20
2018-10-17T08:02:06.265Z,18.20
2018-10-17T08:08:05.984Z,18.90
2018-10-17T08:17:05.530Z,20.93
2018-10-17T08:29:05.826Z,19.10
2018-10-17T08:35:05.432Z,15.63
2018-10-17T08:41:05.363Z,20.27
2018-10-17T08:50:05.706Z,18.30
2018-10-17T09:02:06.009Z,17.87
2018-10-17T09:11:05.520Z,14.13
2018-10-17T09:20:06.180Z,16.67
2018-10-17T09:26:05.263Z,16.13
2018-10-17T09:59:08.798Z,16.93
2018-10-17T10:02:06.956Z,17.43
2018-10-17T10:08:05.657Z,14.97
2018-10-17T10:23:06.701Z,16.07
2018-10-17T10:29:05.372Z,15.50
2018-10-17T10:31:34.582Z,15.07
2018-10-17T10:34:10.030Z,16.90
2018-10-17T10:40:06.173Z,15.47
2018-10-17T11:06:35.627Z,12.53
2018-10-17T11:09:07.351Z,13.30
2018-10-17T11:11:40.422Z,14.00
2018-10-17T11:14:10.397Z,12.30
2018-10-17T11:17:05.970Z,13.93
2018-10-17T11:19:35.141Z,13.57
2018-10-17T11:22:10.323Z,11.67
2018-10-17T11:24:39.561Z,12.73
2018-10-17T11:27:08.774Z,13.37
2018-10-17T11:29:37.964Z,13.53
2018-10-17T11:32:07.360Z,13.13
2018-10-17T11:34:36.629Z,13.37
2018-10-17T11:37:06.741Z,11.80
2018-10-17T11:40:05.907Z,13.33
2018-10-17T11:45:36.063Z,11.70
2018-10-17T11:48:08.910Z,12.60
2018-10-17T11:51:07.513Z,12.70
2018-10-17T11:57:05.919Z,10.70
2018-10-17T12:03:06.231Z,11.07
2018-10-17T12:05:35.984Z,10.60
2018-10-17T12:08:08.213Z,11.00
2018-10-17T12:13:40.558Z,11.20
2018-10-17T12:16:09.809Z,11.20
2018-10-17T12:19:06.453Z,11.17
2018-10-17T12:25:06.152Z,11.77
2018-10-17T13:15:29.443Z,11.83
2018-10-17T13:18:13.913Z,11.40
2018-10-17T13:21:06.965Z,12.63
2018-10-17T13:23:51.244Z,11.60
2018-10-17T13:26:20.459Z,11.93
2018-10-17T13:28:49.710Z,9.80
2018-10-17T13:31:38.722Z,11.57
2018-10-17T13:41:06.717Z,11.13
2018-10-17T13:53:06.129Z,11.20
2018-10-17T13:55:35.361Z,10.80
2018-10-17T14:28:24.063Z,10.70
2018-10-17T14:34:08.075Z,10.50
2018-10-17T14:37:06.651Z,10.40
2018-10-17T14:39:55.698Z,11.00
2018-10-17T14:54:49.493Z,10.53
2018-10-17T15:00:20.597Z,12.03
2018-10-17T15:03:09.006Z,10.83
2018-10-17T15:06:05.836Z,11.90
2018-10-17T15:21:05.980Z,11.67
2018-10-17T15:27:05.739Z,12.53
2018-10-17T15:36:06.016Z,11.87
2018-10-17T15:44:51.000Z,12.20
2018-10-17T15:50:21.467Z,11.80
2018-10-17T15:53:19.823Z,12.17
2018-10-17T15:56:09.340Z,11.30
2018-10-17T16:23:23.289Z,15.90
2018-10-17T16:26:09.344Z,15.73
2018-10-17T16:28:51.719Z,15.93
2018-10-17T16:31:21.650Z,15.13
2018-10-17T16:37:08.716Z,14.07
2018-10-17T16:51:31.676Z,12.13
2018-10-17T16:57:14.449Z,18.30
2018-10-17T17:00:07.262Z,14.63
2018-10-17T17:02:40.233Z,16.13
2018-10-17T17:05:13.052Z,14.93
2018-10-17T17:28:52.979Z,13.40
2018-10-17T17:34:36.527Z,13.83
2018-10-17T17:56:08.641Z,19.27
2018-10-17T17:59:07.286Z,17.33
2018-10-17T18:02:06.408Z,20.37
2018-10-17T18:14:06.585Z,12.90
2018-10-17T18:20:06.674Z,19.93
2018-10-17T18:29:06.420Z,22.63
2018-10-17T18:35:06.226Z,20.47
2018-10-17T18:47:06.474Z,23.27
2018-10-17T18:53:06.046Z,21.97
2018-10-17T19:08:07.197Z,33.40
2018-10-17T19:16:37.165Z,26.20
2018-10-17T19:19:10.052Z,26.37
2018-10-17T19:28:07.285Z,16.27
2018-10-17T19:36:21.749Z,24.00
2018-10-17T19:39:11.210Z,19.90
2018-10-17T19:42:06.589Z,21.80
2018-10-17T19:47:36.586Z,26.17
2018-10-17T19:50:09.797Z,30.03
2018-10-17T19:56:07.641Z,26.80
2018-10-17T19:59:06.331Z,21.90
2018-10-17T20:04:35.450Z,22.37
2018-10-17T20:07:11.161Z,18.93
2018-10-17T20:10:06.566Z,22.00
2018-10-17T20:18:36.554Z,29.83
2018-10-17T20:21:09.369Z,30.63
2018-10-17T20:24:07.974Z,28.83
2018-10-17T20:27:05.974Z,32.13
2018-10-17T20:32:35.073Z,31.77
2018-10-17T20:35:04.524Z,29.77
2018-10-17T20:40:34.417Z,20.97
2018-10-17T20:43:03.918Z,22.90
2018-10-17T20:45:33.087Z,31.83
2018-10-17T20:48:02.286Z,33.40
2018-10-17T20:50:31.455Z,34.53
2018-10-17T20:53:00.660Z,28.10
2018-10-17T20:58:30.395Z,21.40
2018-10-17T21:00:59.595Z,31.63
2018-10-17T21:03:28.779Z,18.33
2018-10-17T21:06:08.441Z,19.13
2018-10-17T21:08:37.755Z,18.90
2018-10-17T21:11:06.975Z,18.80
2018-10-17T21:13:36.196Z,22.63
2018-10-17T21:16:05.846Z,28.00
2018-10-17T21:18:35.566Z,21.50
2018-10-17T21:21:04.718Z,22.60
2018-10-17T21:23:33.960Z,20.00
2018-10-17T21:26:03.190Z,20.00
2018-10-17T21:28:32.384Z,18.83
2018-10-17T21:31:01.837Z,19.27
2018-10-17T21:36:31.535Z,20.33
2018-10-17T21:39:00.691Z,19.80
2018-10-17T21:41:29.836Z,20.83
2018-10-17T21:43:59.045Z,20.70
2018-10-17T21:46:28.337Z,19.13
2018-10-17T21:48:57.587Z,22.47
2018-10-17T21:51:26.845Z,20.10
2018-10-17T21:53:56.009Z,20.77
2018-10-17T21:56:25.186Z,34.00
2018-10-17T21:58:54.394Z,34.83
2018-10-17T22:01:23.565Z,34.77
2018-10-17T22:03:52.831Z,20.87
2018-10-17T22:06:22.021Z,22.83
2018-10-17T22:08:51.185Z,21.70
2018-10-17T22:11:20.451Z,20.80
2018-10-17T22:13:49.669Z,31.60
2018-10-17T22:16:19.153Z,30.70
2018-10-17T22:18:48.390Z,35.87
2018-10-17T22:21:17.598Z,23.37
2018-10-17T22:23:46.777Z,22.70
2018-10-17T22:26:16.032Z,38.00
2018-10-17T22:28:45.157Z,32.27
2018-10-17T22:31:14.324Z,21.20
2018-10-17T22:33:43.503Z,22.63
2018-10-17T22:36:12.712Z,31.37
2018-10-17T22:39:07.111Z,34.60
2018-10-17T22:41:36.311Z,21.80
2018-10-17T22:44:09.341Z,32.03
2018-10-17T22:46:38.529Z,36.17
2018-10-17T22:49:08.693Z,21.03
2018-10-17T22:51:38.527Z,24.87
2018-10-17T22:54:08.142Z,21.80
2018-10-17T22:56:38.121Z,29.80
2018-10-17T22:59:07.513Z,30.67
2018-10-17T23:01:37.358Z,22.07
2018-10-17T23:04:07.515Z,21.70
2018-10-17T23:06:36.674Z,20.20
2018-10-17T23:09:11.210Z,23.57
2018-10-17T23:12:07.097Z,22.40
2018-10-17T23:14:36.352Z,33.40
2018-10-17T23:17:06.452Z,38.20
2018-10-17T23:19:35.603Z,41.97
2018-10-17T23:22:04.949Z,25.40
2018-10-17T23:24:34.135Z,21.97
2018-10-17T23:27:03.309Z,20.93
2018-10-17T23:29:32.477Z,23.63
2018-10-17T23:32:08.769Z,30.90
2018-10-17T23:34:37.957Z,24.70
2018-10-17T23:37:07.139Z,24.77
2018-10-17T23:42:36.475Z,23.43
2018-10-17T23:45:06.932Z,33.07
2018-10-17T23:47:36.340Z,38.47
2018-10-17T23:50:05.761Z,34.73
2018-10-17T23:52:34.864Z,23.10
2018-10-17T23:55:09.979Z,26.20
2018-10-17T23:57:39.241Z,32.77
